sensor_id;sensor_type;location;lat;lon;timestamp;temperature;humidity
4435;DHT22;46552;52.150;8.428;2023-05-10T00:00:12;15.90;99.90
4435;DHT22;46552;52.150;8.428;2023-05-10T00:02:39;16.10;99.90
4435;DHT22;46552;52.150;8.428;2023-05-10T00:05:07;16.10;99.90
4435;DHT22;46552;52.150;8.428;2023-05-10T00:07:36;16.00;99.90
4435;DHT22;46552;52.150;8.428;2023-05-10T00:10:05;16.10;99.90
4435;DHT22;46552;52.150;8.428;2023-05-10T00:12:32;16.00;99.90
4435;DHT22;46552;52.150;8.428;2023-05-10T00:17:26;16.00;99.90
4435;DHT22;46552;52.150;8.428;2023-05-10T00:19:53;16.10;99.90
4435;DHT22;46552;52.150;8.428;2023-05-10T00:22:21;16.00;99.90
4435;DHT22;46552;52.150;8.428;2023-05-10T00:24:49;16.20;99.90
4435;DHT22;46552;52.150;8.428;2023-05-10T00:27:17;15.90;99.90
4435;DHT22;46552;52.150;8.428;2023-05-10T00:29:44;16.10;99.90
4435;DHT22;46552;52.150;8.428;2023-05-10T00:32:12;16.00;99.90
4435;DHT22;46552;52.150;8.428;2023-05-10T00:34:39;15.90;99.90
4435;DHT22;46552;52.150;8.428;2023-05-10T00:37:06;15.70;99.90
4435;DHT22;46552;52.150;8.428;2023-05-10T00:39:33;15.80;99.90
4435;DHT22;46552;52.150;8.428;2023-05-10T00:42:02;15.60;99.90
4435;DHT22;46552;52.150;8.428;2023-05-10T00:44:30;16.00;99.90
4435;DHT22;46552;52.150;8.428;2023-05-10T00:46:58;15.80;99.90
4435;DHT22;46552;52.150;8.428;2023-05-10T00:49:25;15.70;99.90
4435;DHT22;46552;52.150;8.428;2023-05-10T00:51:53;15.90;99.90
4435;DHT22;46552;52.150;8.428;2023-05-10T00:54:20;15.70;99.90
4435;DHT22;46552;52.150;8.428;2023-05-10T00:56:47;15.80;99.90
4435;DHT22;46552;52.150;8.428;2023-05-10T00:59:17;15.80;99.90
4435;DHT22;46552;52.150;8.428;2023-05-10T01:04:13;15.70;99.90
4435;DHT22;46552;52.150;8.428;2023-05-10T01:06:41;15.90;99.90
4435;DHT22;46552;52.150;8.428;2023-05-10T01:09:08;15.70;99.90
4435;DHT22;46552;52.150;8.428;2023-05-10T01:11:35;15.50;99.90
4435;DHT22;46552;52.150;8.428;2023-05-10T01:14:03;15.50;99.90
4435;DHT22;46552;52.150;8.428;2023-05-10T01:16:37;15.80;99.90
4435;DHT22;46552;52.150;8.428;2023-05-10T01:19:08;15.70;99.90
4435;DHT22;46552;52.150;8.428;2023-05-10T01:21:44;15.70;99.90
4435;DHT22;46552;52.150;8.428;2023-05-10T01:27:25;15.50;99.90
4435;DHT22;46552;52.150;8.428;2023-05-10T01:32:58;15.30;99.90
4435;DHT22;46552;52.150;8.428;2023-05-10T01:35:35;15.40;99.90
4435;DHT22;46552;52.150;8.428;2023-05-10T01:38:07;15.60;99.90
4435;DHT22;46552;52.150;8.428;2023-05-10T01:40:42;15.60;99.90
4435;DHT22;46552;52.150;8.428;2023-05-10T01:43:19;15.60;99.90
4435;DHT22;46552;52.150;8.428;2023-05-10T01:45:54;15.40;99.90
4435;DHT22;46552;52.150;8.428;2023-05-10T01:48:26;15.40;99.90
4435;DHT22;46552;52.150;8.428;2023-05-10T01:50:55;15.40;99.90
4435;DHT22;46552;52.150;8.428;2023-05-10T01:53:23;15.40;99.90
4435;DHT22;46552;52.150;8.428;2023-05-10T01:55:53;15.40;99.90
4435;DHT22;46552;52.150;8.428;2023-05-10T01:58:24;15.40;99.90
4435;DHT22;46552;52.150;8.428;2023-05-10T02:00:52;15.60;99.90
4435;DHT22;46552;52.150;8.428;2023-05-10T02:03:24;15.40;99.90
4435;DHT22;46552;52.150;8.428;2023-05-10T02:05:52;15.40;99.90
4435;DHT22;46552;52.150;8.428;2023-05-10T02:08:21;15.30;99.90
4435;DHT22;46552;52.150;8.428;2023-05-10T02:10:51;15.00;99.90
4435;DHT22;46552;52.150;8.428;2023-05-10T02:13:19;15.50;99.90
4435;DHT22;46552;52.150;8.428;2023-05-10T02:15:49;15.30;99.90
4435;DHT22;46552;52.150;8.428;2023-05-10T02:18:17;15.50;99.90
4435;DHT22;46552;52.150;8.428;2023-05-10T02:20:48;15.40;99.90
4435;DHT22;46552;52.150;8.428;2023-05-10T02:23:17;15.00;99.90
4435;DHT22;46552;52.150;8.428;2023-05-10T02:25:45;15.30;99.90
4435;DHT22;46552;52.150;8.428;2023-05-10T02:28:14;15.50;99.90
4435;DHT22;46552;52.150;8.428;2023-05-10T02:30:43;15.30;99.90
4435;DHT22;46552;52.150;8.428;2023-05-10T02:33:11;15.30;99.90
4435;DHT22;46552;52.150;8.428;2023-05-10T02:35:38;15.10;99.90
4435;DHT22;46552;52.150;8.428;2023-05-10T02:38:08;15.50;99.90
4435;DHT22;46552;52.150;8.428;2023-05-10T02:40:37;15.20;99.90
4435;DHT22;46552;52.150;8.428;2023-05-10T02:43:05;15.30;99.90
4435;DHT22;46552;52.150;8.428;2023-05-10T02:45:35;15.40;99.90
4435;DHT22;46552;52.150;8.428;2023-05-10T02:48:04;15.50;99.90
4435;DHT22;46552;52.150;8.428;2023-05-10T02:50:33;15.10;99.90
4435;DHT22;46552;52.150;8.428;2023-05-10T02:53:04;15.00;99.90
4435;DHT22;46552;52.150;8.428;2023-05-10T02:55:39;15.20;99.90
4435;DHT22;46552;52.150;8.428;2023-05-10T02:58:07;15.30;99.90
4435;DHT22;46552;52.150;8.428;2023-05-10T03:00:36;15.00;99.90
4435;DHT22;46552;52.150;8.428;2023-05-10T03:03:03;14.90;99.90
4435;DHT22;46552;52.150;8.428;2023-05-10T03:07:57;15.10;99.90
4435;DHT22;46552;52.150;8.428;2023-05-10T03:10:28;14.90;99.90
4435;DHT22;46552;52.150;8.428;2023-05-10T03:13:07;15.10;99.90
4435;DHT22;46552;52.150;8.428;2023-05-10T03:15:42;14.90;99.90
4435;DHT22;46552;52.150;8.428;2023-05-10T03:18:17;15.30;99.90
4435;DHT22;46552;52.150;8.428;2023-05-10T03:20:48;15.10;99.90
4435;DHT22;46552;52.150;8.428;2023-05-10T03:23:21;15.30;99.90
4435;DHT22;46552;52.150;8.428;2023-05-10T03:25:50;15.30;99.90
4435;DHT22;46552;52.150;8.428;2023-05-10T03:28:21;15.00;99.90
4435;DHT22;46552;52.150;8.428;2023-05-10T03:30:49;15.00;99.90
4435;DHT22;46552;52.150;8.428;2023-05-10T03:33:16;15.10;99.90
4435;DHT22;46552;52.150;8.428;2023-05-10T03:35:43;14.80;99.90
4435;DHT22;46552;52.150;8.428;2023-05-10T03:38:12;15.10;99.90
4435;DHT22;46552;52.150;8.428;2023-05-10T03:40:39;15.00;99.90
4435;DHT22;46552;52.150;8.428;2023-05-10T03:43:06;15.10;99.90
4435;DHT22;46552;52.150;8.428;2023-05-10T03:45:35;15.10;99.90
4435;DHT22;46552;52.150;8.428;2023-05-10T03:48:03;15.00;99.90
4435;DHT22;46552;52.150;8.428;2023-05-10T03:50:31;15.20;99.90
4435;DHT22;46552;52.150;8.428;2023-05-10T03:55:25;15.00;99.90
4435;DHT22;46552;52.150;8.428;2023-05-10T03:57:52;15.20;99.90
4435;DHT22;46552;52.150;8.428;2023-05-10T04:00:20;15.30;99.90
4435;DHT22;46552;52.150;8.428;2023-05-10T04:02:49;14.90;99.90
4435;DHT22;46552;52.150;8.428;2023-05-10T04:05:16;14.90;99.90
4435;DHT22;46552;52.150;8.428;2023-05-10T04:10:11;14.70;99.90
4435;DHT22;46552;52.150;8.428;2023-05-10T04:15:07;14.80;99.90
4435;DHT22;46552;52.150;8.428;2023-05-10T04:17:35;15.00;99.90
4435;DHT22;46552;52.150;8.428;2023-05-10T04:20:04;14.90;99.90
4435;DHT22;46552;52.150;8.428;2023-05-10T04:22:32;15.00;99.90
4435;DHT22;46552;52.150;8.428;2023-05-10T04:27:27;14.70;99.90
4435;DHT22;46552;52.150;8.428;2023-05-10T04:29:54;14.80;99.90
4435;DHT22;46552;52.150;8.428;2023-05-10T04:32:21;14.50;99.90
4435;DHT22;46552;52.150;8.428;2023-05-10T04:34:48;14.50;99.90
4435;DHT22;46552;52.150;8.428;2023-05-10T04:37:17;14.60;99.90
4435;DHT22;46552;52.150;8.428;2023-05-10T04:39:45;14.30;99.90
4435;DHT22;46552;52.150;8.428;2023-05-10T04:42:12;14.30;99.90
4435;DHT22;46552;52.150;8.428;2023-05-10T04:44:40;14.50;99.90
4435;DHT22;46552;52.150;8.428;2023-05-10T04:47:08;14.60;99.90
4435;DHT22;46552;52.150;8.428;2023-05-10T04:49:35;14.70;99.90
4435;DHT22;46552;52.150;8.428;2023-05-10T04:52:02;14.40;99.90
4435;DHT22;46552;52.150;8.428;2023-05-10T04:54:31;14.60;99.90
4435;DHT22;46552;52.150;8.428;2023-05-10T04:56:58;14.50;99.90
4435;DHT22;46552;52.150;8.428;2023-05-10T05:01:53;14.50;99.90
4435;DHT22;46552;52.150;8.428;2023-05-10T05:04:20;14.20;99.90
4435;DHT22;46552;52.150;8.428;2023-05-10T05:06:48;14.40;99.90
4435;DHT22;46552;52.150;8.428;2023-05-10T05:09:16;14.50;99.90
4435;DHT22;46552;52.150;8.428;2023-05-10T05:11:46;14.50;99.90
4435;DHT22;46552;52.150;8.428;2023-05-10T05:14:14;14.30;99.90
4435;DHT22;46552;52.150;8.428;2023-05-10T05:16:41;14.50;99.90
4435;DHT22;46552;52.150;8.428;2023-05-10T05:19:08;14.30;99.90
4435;DHT22;46552;52.150;8.428;2023-05-10T05:21:35;14.60;99.90
4435;DHT22;46552;52.150;8.428;2023-05-10T05:24:03;14.60;99.90
4435;DHT22;46552;52.150;8.428;2023-05-10T05:28:59;14.50;99.90
4435;DHT22;46552;52.150;8.428;2023-05-10T05:31:27;14.60;99.90
4435;DHT22;46552;52.150;8.428;2023-05-10T05:33:54;14.50;99.90
4435;DHT22;46552;52.150;8.428;2023-05-10T05:36:22;14.60;99.90
4435;DHT22;46552;52.150;8.428;2023-05-10T05:41:17;14.50;99.90
4435;DHT22;46552;52.150;8.428;2023-05-10T05:43:44;14.70;99.90
4435;DHT22;46552;52.150;8.428;2023-05-10T05:46:12;14.60;99.90
4435;DHT22;46552;52.150;8.428;2023-05-10T05:48:40;14.60;99.90
4435;DHT22;46552;52.150;8.428;2023-05-10T05:53:35;14.80;99.90
4435;DHT22;46552;52.150;8.428;2023-05-10T05:56:02;14.40;99.90
4435;DHT22;46552;52.150;8.428;2023-05-10T05:58:29;14.60;99.90
4435;DHT22;46552;52.150;8.428;2023-05-10T06:00:56;14.40;99.90
4435;DHT22;46552;52.150;8.428;2023-05-10T06:03:28;14.60;99.90
4435;DHT22;46552;52.150;8.428;2023-05-10T06:08:23;14.70;99.90
4435;DHT22;46552;52.150;8.428;2023-05-10T06:10:50;14.80;99.90
4435;DHT22;46552;52.150;8.428;2023-05-10T06:13:17;14.70;99.90
4435;DHT22;46552;52.150;8.428;2023-05-10T06:15:44;14.80;99.90
4435;DHT22;46552;52.150;8.428;2023-05-10T06:18:12;14.70;99.90
4435;DHT22;46552;52.150;8.428;2023-05-10T06:20:42;14.80;99.90
4435;DHT22;46552;52.150;8.428;2023-05-10T06:23:10;15.00;99.90
4435;DHT22;46552;52.150;8.428;2023-05-10T06:25:37;14.80;99.90
4435;DHT22;46552;52.150;8.428;2023-05-10T06:28:04;15.00;99.90
4435;DHT22;46552;52.150;8.428;2023-05-10T06:32:59;14.90;99.90
4435;DHT22;46552;52.150;8.428;2023-05-10T06:35:27;14.90;99.90
4435;DHT22;46552;52.150;8.428;2023-05-10T06:37:57;14.90;99.90
4435;DHT22;46552;52.150;8.428;2023-05-10T06:40:24;14.90;99.90
4435;DHT22;46552;52.150;8.428;2023-05-10T06:45:19;15.10;99.90
4435;DHT22;46552;52.150;8.428;2023-05-10T06:47:46;14.70;99.90
4435;DHT22;46552;52.150;8.428;2023-05-10T06:50:13;15.10;99.90
4435;DHT22;46552;52.150;8.428;2023-05-10T06:52:43;14.80;99.90
4435;DHT22;46552;52.150;8.428;2023-05-10T06:55:12;14.80;99.90
4435;DHT22;46552;52.150;8.428;2023-05-10T06:57:39;15.10;99.90
4435;DHT22;46552;52.150;8.428;2023-05-10T07:00:07;14.80;99.90
4435;DHT22;46552;52.150;8.428;2023-05-10T07:05:02;15.10;99.90
4435;DHT22;46552;52.150;8.428;2023-05-10T07:07:30;14.70;99.90
4435;DHT22;46552;52.150;8.428;2023-05-10T07:09:57;15.00;99.90
4435;DHT22;46552;52.150;8.428;2023-05-10T07:12:27;15.00;99.90
4435;DHT22;46552;52.150;8.428;2023-05-10T07:14:54;15.30;99.90
4435;DHT22;46552;52.150;8.428;2023-05-10T07:17:21;15.00;99.90
4435;DHT22;46552;52.150;8.428;2023-05-10T07:19:48;15.20;99.90
4435;DHT22;46552;52.150;8.428;2023-05-10T07:22:16;14.80;99.90
4435;DHT22;46552;52.150;8.428;2023-05-10T07:24:44;15.10;99.90
4435;DHT22;46552;52.150;8.428;2023-05-10T07:29:41;15.20;99.90
4435;DHT22;46552;52.150;8.428;2023-05-10T07:34:36;15.80;99.90
4435;DHT22;46552;52.150;8.428;2023-05-10T07:37:03;15.60;99.90
4435;DHT22;46552;52.150;8.428;2023-05-10T07:41:59;15.60;99.90
4435;DHT22;46552;52.150;8.428;2023-05-10T07:44:27;15.70;99.90
4435;DHT22;46552;52.150;8.428;2023-05-10T07:46:56;15.60;99.90
4435;DHT22;46552;52.150;8.428;2023-05-10T07:49:22;15.50;99.90
4435;DHT22;46552;52.150;8.428;2023-05-10T07:51:51;15.70;99.90
4435;DHT22;46552;52.150;8.428;2023-05-10T07:54:18;15.60;99.90
4435;DHT22;46552;52.150;8.428;2023-05-10T07:59:15;16.00;99.90
4435;DHT22;46552;52.150;8.428;2023-05-10T08:01:43;16.00;99.90
4435;DHT22;46552;52.150;8.428;2023-05-10T08:04:12;15.90;99.90
4435;DHT22;46552;52.150;8.428;2023-05-10T08:06:39;15.80;99.90
4435;DHT22;46552;52.150;8.428;2023-05-10T08:09:07;16.10;99.90
4435;DHT22;46552;52.150;8.428;2023-05-10T08:11:34;16.10;99.90
4435;DHT22;46552;52.150;8.428;2023-05-10T08:14:01;15.90;99.90
4435;DHT22;46552;52.150;8.428;2023-05-10T08:16:28;16.40;99.90
4435;DHT22;46552;52.150;8.428;2023-05-10T08:18:55;16.00;99.90
4435;DHT22;46552;52.150;8.428;2023-05-10T08:21:24;16.30;99.90
4435;DHT22;46552;52.150;8.428;2023-05-10T08:23:51;15.10;99.90
4435;DHT22;46552;52.150;8.428;2023-05-10T08:26:19;16.10;99.90
4435;DHT22;46552;52.150;8.428;2023-05-10T08:31:15;16.80;99.90
4435;DHT22;46552;52.150;8.428;2023-05-10T08:33:42;16.40;99.90
4435;DHT22;46552;52.150;8.428;2023-05-10T08:36:09;16.40;99.90
4435;DHT22;46552;52.150;8.428;2023-05-10T08:38:38;16.40;99.90
4435;DHT22;46552;52.150;8.428;2023-05-10T08:41:05;16.10;99.90
4435;DHT22;46552;52.150;8.428;2023-05-10T08:43:33;16.10;99.90
4435;DHT22;46552;52.150;8.428;2023-05-10T08:46:05;16.10;99.90
4435;DHT22;46552;52.150;8.428;2023-05-10T08:48:34;16.20;99.90
4435;DHT22;46552;52.150;8.428;2023-05-10T08:51:03;16.10;99.90
4435;DHT22;46552;52.150;8.428;2023-05-10T08:53:31;16.10;99.90
4435;DHT22;46552;52.150;8.428;2023-05-10T08:56:04;16.20;99.90
4435;DHT22;46552;52.150;8.428;2023-05-10T08:58:31;16.40;99.90
4435;DHT22;46552;52.150;8.428;2023-05-10T09:00:59;16.50;99.90
4435;DHT22;46552;52.150;8.428;2023-05-10T09:03:27;16.70;99.90
4435;DHT22;46552;52.150;8.428;2023-05-10T09:05:55;16.80;99.90
4435;DHT22;46552;52.150;8.428;2023-05-10T09:08:23;17.00;99.90
4435;DHT22;46552;52.150;8.428;2023-05-10T09:10:52;16.80;99.90
4435;DHT22;46552;52.150;8.428;2023-05-10T09:13:22;16.80;99.90
4435;DHT22;46552;52.150;8.428;2023-05-10T09:15:50;16.50;99.90
4435;DHT22;46552;52.150;8.428;2023-05-10T09:20:45;16.90;99.90
4435;DHT22;46552;52.150;8.428;2023-05-10T09:23:12;16.80;99.90
4435;DHT22;46552;52.150;8.428;2023-05-10T09:25:41;17.20;99.90
4435;DHT22;46552;52.150;8.428;2023-05-10T09:28:09;17.20;99.90
4435;DHT22;46552;52.150;8.428;2023-05-10T09:30:39;17.20;99.90
4435;DHT22;46552;52.150;8.428;2023-05-10T09:33:08;17.50;99.90
4435;DHT22;46552;52.150;8.428;2023-05-10T09:35:35;17.80;99.90
4435;DHT22;46552;52.150;8.428;2023-05-10T09:38:05;18.00;99.90
4435;DHT22;46552;52.150;8.428;2023-05-10T09:40:32;18.30;99.90
4435;DHT22;46552;52.150;8.428;2023-05-10T09:43:01;18.80;99.90
4435;DHT22;46552;52.150;8.428;2023-05-10T09:45:30;18.90;99.90
4435;DHT22;46552;52.150;8.428;2023-05-10T09:48:01;18.90;99.90
4435;DHT22;46552;52.150;8.428;2023-05-10T09:50:29;19.20;99.90
4435;DHT22;46552;52.150;8.428;2023-05-10T09:52:57;19.50;99.90
4435;DHT22;46552;52.150;8.428;2023-05-10T09:55:25;19.90;99.90
4435;DHT22;46552;52.150;8.428;2023-05-10T09:57:59;20.20;99.90
4435;DHT22;46552;52.150;8.428;2023-05-10T10:00:27;20.70;99.90
4435;DHT22;46552;52.150;8.428;2023-05-10T10:02:56;20.70;99.90
4435;DHT22;46552;52.150;8.428;2023-05-10T10:05:30;20.90;99.90
4435;DHT22;46552;52.150;8.428;2023-05-10T10:07:59;20.70;99.90
4435;DHT22;46552;52.150;8.428;2023-05-10T10:10:27;20.90;99.90
4435;DHT22;46552;52.150;8.428;2023-05-10T10:12:55;20.80;99.90
4435;DHT22;46552;52.150;8.428;2023-05-10T10:15:23;20.70;99.90
4435;DHT22;46552;52.150;8.428;2023-05-10T10:17:51;20.90;99.90
4435;DHT22;46552;52.150;8.428;2023-05-10T10:20:20;20.50;99.90
4435;DHT22;46552;52.150;8.428;2023-05-10T10:22:50;20.60;99.90
4435;DHT22;46552;52.150;8.428;2023-05-10T10:25:18;20.60;99.90
4435;DHT22;46552;52.150;8.428;2023-05-10T10:27:57;20.40;99.90
4435;DHT22;46552;52.150;8.428;2023-05-10T10:30:29;20.70;99.90
4435;DHT22;46552;52.150;8.428;2023-05-10T10:33:18;20.60;99.90
4435;DHT22;46552;52.150;8.428;2023-05-10T10:35:52;20.50;99.90
4435;DHT22;46552;52.150;8.428;2023-05-10T10:38:21;20.70;99.90
4435;DHT22;46552;52.150;8.428;2023-05-10T10:40:49;20.90;99.90
4435;DHT22;46552;52.150;8.428;2023-05-10T10:43:28;20.70;99.90
4435;DHT22;46552;52.150;8.428;2023-05-10T10:46:12;21.10;99.90
4435;DHT22;46552;52.150;8.428;2023-05-10T10:48:41;21.30;99.90
4435;DHT22;46552;52.150;8.428;2023-05-10T10:51:08;21.50;99.90
4435;DHT22;46552;52.150;8.428;2023-05-10T10:53:39;21.40;99.90
4435;DHT22;46552;52.150;8.428;2023-05-10T10:56:08;21.40;99.90
4435;DHT22;46552;52.150;8.428;2023-05-10T10:58:37;21.80;99.90
4435;DHT22;46552;52.150;8.428;2023-05-10T11:01:13;21.50;99.90
4435;DHT22;46552;52.150;8.428;2023-05-10T11:03:40;21.60;99.90
4435;DHT22;46552;52.150;8.428;2023-05-10T11:06:08;21.60;99.90
4435;DHT22;46552;52.150;8.428;2023-05-10T11:08:43;21.60;99.90
4435;DHT22;46552;52.150;8.428;2023-05-10T11:11:14;21.80;99.90
4435;DHT22;46552;52.150;8.428;2023-05-10T11:13:43;21.80;99.90
4435;DHT22;46552;52.150;8.428;2023-05-10T11:16:13;21.70;99.90
4435;DHT22;46552;52.150;8.428;2023-05-10T11:19:01;23.40;99.90
4435;DHT22;46552;52.150;8.428;2023-05-10T11:21:29;22.10;99.90
4435;DHT22;46552;52.150;8.428;2023-05-10T11:23:59;22.50;99.90
4435;DHT22;46552;52.150;8.428;2023-05-10T11:26:32;22.80;99.90
4435;DHT22;46552;52.150;8.428;2023-05-10T11:29:01;22.70;99.90
4435;DHT22;46552;52.150;8.428;2023-05-10T11:31:30;23.00;99.90
4435;DHT22;46552;52.150;8.428;2023-05-10T11:33:58;22.90;99.90
4435;DHT22;46552;52.150;8.428;2023-05-10T11:36:28;22.70;99.90
4435;DHT22;46552;52.150;8.428;2023-05-10T11:39:00;22.70;99.90
4435;DHT22;46552;52.150;8.428;2023-05-10T11:41:29;22.60;99.90
4435;DHT22;46552;52.150;8.428;2023-05-10T11:43:59;22.60;99.90
4435;DHT22;46552;52.150;8.428;2023-05-10T11:46:27;23.00;99.90
4435;DHT22;46552;52.150;8.428;2023-05-10T11:48:58;23.20;99.90
4435;DHT22;46552;52.150;8.428;2023-05-10T11:51:27;23.30;99.90
4435;DHT22;46552;52.150;8.428;2023-05-10T11:53:56;23.30;99.90
4435;DHT22;46552;52.150;8.428;2023-05-10T11:56:25;23.20;99.80
4435;DHT22;46552;52.150;8.428;2023-05-10T11:58:54;23.40;99.70
4435;DHT22;46552;52.150;8.428;2023-05-10T12:01:22;23.40;99.80
4435;DHT22;46552;52.150;8.428;2023-05-10T12:03:50;23.30;99.70
4435;DHT22;46552;52.150;8.428;2023-05-10T12:06:18;23.10;99.70
4435;DHT22;46552;52.150;8.428;2023-05-10T12:08:47;23.30;99.80
4435;DHT22;46552;52.150;8.428;2023-05-10T12:11:18;23.20;99.20
4435;DHT22;46552;52.150;8.428;2023-05-10T12:13:47;23.40;98.80
4435;DHT22;46552;52.150;8.428;2023-05-10T12:16:20;23.40;98.50
4435;DHT22;46552;52.150;8.428;2023-05-10T12:18:48;23.50;98.40
4435;DHT22;46552;52.150;8.428;2023-05-10T12:21:16;23.60;98.40
4435;DHT22;46552;52.150;8.428;2023-05-10T12:23:45;23.80;98.60
4435;DHT22;46552;52.150;8.428;2023-05-10T12:26:13;23.80;98.30
4435;DHT22;46552;52.150;8.428;2023-05-10T12:31:09;23.90;98.30
4435;DHT22;46552;52.150;8.428;2023-05-10T12:33:37;23.90;98.40
4435;DHT22;46552;52.150;8.428;2023-05-10T12:36:07;23.80;98.50
4435;DHT22;46552;52.150;8.428;2023-05-10T12:38:36;23.70;98.60
4435;DHT22;46552;52.150;8.428;2023-05-10T12:41:04;23.50;98.80
4435;DHT22;46552;52.150;8.428;2023-05-10T12:43:33;23.20;98.70
4435;DHT22;46552;52.150;8.428;2023-05-10T12:46:05;23.20;98.80
4435;DHT22;46552;52.150;8.428;2023-05-10T12:48:36;22.80;98.80
4435;DHT22;46552;52.150;8.428;2023-05-10T12:51:04;22.60;99.10
4435;DHT22;46552;52.150;8.428;2023-05-10T12:53:35;22.50;99.20
4435;DHT22;46552;52.150;8.428;2023-05-10T12:56:02;22.50;99.40
4435;DHT22;46552;52.150;8.428;2023-05-10T12:58:29;22.40;99.50
4435;DHT22;46552;52.150;8.428;2023-05-10T13:00:57;22.40;99.30
4435;DHT22;46552;52.150;8.428;2023-05-10T13:03:24;22.30;99.30
4435;DHT22;46552;52.150;8.428;2023-05-10T13:05:53;22.40;99.40
4435;DHT22;46552;52.150;8.428;2023-05-10T13:08:20;22.20;99.30
4435;DHT22;46552;52.150;8.428;2023-05-10T13:10:48;22.00;99.40
4435;DHT22;46552;52.150;8.428;2023-05-10T13:13:15;22.00;99.80
4435;DHT22;46552;52.150;8.428;2023-05-10T13:15:43;22.00;99.90
4435;DHT22;46552;52.150;8.428;2023-05-10T13:18:10;21.70;99.90
4435;DHT22;46552;52.150;8.428;2023-05-10T13:20:39;21.60;99.90
4435;DHT22;46552;52.150;8.428;2023-05-10T13:23:07;21.50;99.70
4435;DHT22;46552;52.150;8.428;2023-05-10T13:25:35;21.30;99.90
4435;DHT22;46552;52.150;8.428;2023-05-10T13:28:02;21.40;99.90
4435;DHT22;46552;52.150;8.428;2023-05-10T13:30:29;21.30;99.90
4435;DHT22;46552;52.150;8.428;2023-05-10T13:32:56;21.10;99.90
4435;DHT22;46552;52.150;8.428;2023-05-10T13:35:24;21.10;99.90
4435;DHT22;46552;52.150;8.428;2023-05-10T13:40:23;20.90;99.90
4435;DHT22;46552;52.150;8.428;2023-05-10T13:42:51;20.80;99.90
4435;DHT22;46552;52.150;8.428;2023-05-10T13:45:18;20.80;99.90
4435;DHT22;46552;52.150;8.428;2023-05-10T13:47:45;20.80;99.90
4435;DHT22;46552;52.150;8.428;2023-05-10T13:50:12;20.50;99.90
4435;DHT22;46552;52.150;8.428;2023-05-10T13:52:39;20.30;99.90
4435;DHT22;46552;52.150;8.428;2023-05-10T13:55:07;20.20;99.90
4435;DHT22;46552;52.150;8.428;2023-05-10T13:57:36;20.30;99.90
4435;DHT22;46552;52.150;8.428;2023-05-10T14:00:04;20.30;99.90
4435;DHT22;46552;52.150;8.428;2023-05-10T14:02:31;20.50;99.90
4435;DHT22;46552;52.150;8.428;2023-05-10T14:04:59;20.50;99.90
4435;DHT22;46552;52.150;8.428;2023-05-10T14:07:26;20.40;99.90
4435;DHT22;46552;52.150;8.428;2023-05-10T14:09:53;20.30;99.90
4435;DHT22;46552;52.150;8.428;2023-05-10T14:12:20;20.40;99.90
4435;DHT22;46552;52.150;8.428;2023-05-10T14:14:48;20.20;99.90
4435;DHT22;46552;52.150;8.428;2023-05-10T14:17:16;20.50;99.90
4435;DHT22;46552;52.150;8.428;2023-05-10T14:19:43;20.20;99.90
4435;DHT22;46552;52.150;8.428;2023-05-10T14:22:10;20.10;99.90
4435;DHT22;46552;52.150;8.428;2023-05-10T14:27:05;20.10;99.90
4435;DHT22;46552;52.150;8.428;2023-05-10T14:29:32;20.10;99.90
4435;DHT22;46552;52.150;8.428;2023-05-10T14:32:01;20.20;99.90
4435;DHT22;46552;52.150;8.428;2023-05-10T14:34:28;20.20;99.90
4435;DHT22;46552;52.150;8.428;2023-05-10T14:36:55;19.90;99.90
4435;DHT22;46552;52.150;8.428;2023-05-10T14:39:22;19.80;99.90
4435;DHT22;46552;52.150;8.428;2023-05-10T14:41:49;19.40;99.90
4435;DHT22;46552;52.150;8.428;2023-05-10T14:46:45;19.20;99.90
4435;DHT22;46552;52.150;8.428;2023-05-10T14:49:15;19.30;99.90
4435;DHT22;46552;52.150;8.428;2023-05-10T14:54:10;18.70;99.90
4435;DHT22;46552;52.150;8.428;2023-05-10T14:56:37;18.50;99.90
4435;DHT22;46552;52.150;8.428;2023-05-10T14:59:07;18.70;99.90
4435;DHT22;46552;52.150;8.428;2023-05-10T15:01:34;18.80;99.90
4435;DHT22;46552;52.150;8.428;2023-05-10T15:04:03;18.60;99.90
4435;DHT22;46552;52.150;8.428;2023-05-10T15:06:34;18.60;99.90
4435;DHT22;46552;52.150;8.428;2023-05-10T15:09:01;18.60;99.90
4435;DHT22;46552;52.150;8.428;2023-05-10T15:13:56;18.50;99.90
4435;DHT22;46552;52.150;8.428;2023-05-10T15:16:23;18.30;99.90
4435;DHT22;46552;52.150;8.428;2023-05-10T15:21:18;18.30;99.90
4435;DHT22;46552;52.150;8.428;2023-05-10T15:23:47;18.20;99.90
4435;DHT22;46552;52.150;8.428;2023-05-10T15:36:05;18.30;99.90
4435;DHT22;46552;52.150;8.428;2023-05-10T15:41:01;18.30;99.90
4435;DHT22;46552;52.150;8.428;2023-05-10T15:50:50;18.00;99.90
4435;DHT22;46552;52.150;8.428;2023-05-10T15:58:16;18.00;99.90
4435;DHT22;46552;52.150;8.428;2023-05-10T16:05:38;17.80;99.90
4435;DHT22;46552;52.150;8.428;2023-05-10T16:08:05;17.80;99.90
4435;DHT22;46552;52.150;8.428;2023-05-10T16:10:32;17.40;99.90
4435;DHT22;46552;52.150;8.428;2023-05-10T16:12:59;17.50;99.90
4435;DHT22;46552;52.150;8.428;2023-05-10T16:15:29;17.60;99.90
4435;DHT22;46552;52.150;8.428;2023-05-10T16:17:56;17.70;99.90
4435;DHT22;46552;52.150;8.428;2023-05-10T16:20:23;17.80;99.90
4435;DHT22;46552;52.150;8.428;2023-05-10T16:22:51;17.60;99.90
4435;DHT22;46552;52.150;8.428;2023-05-10T16:25:18;17.70;99.90
4435;DHT22;46552;52.150;8.428;2023-05-10T16:27:45;17.50;99.90
4435;DHT22;46552;52.150;8.428;2023-05-10T16:30:13;17.50;99.90
4435;DHT22;46552;52.150;8.428;2023-05-10T16:32:41;17.80;99.90
4435;DHT22;46552;52.150;8.428;2023-05-10T16:35:08;17.60;99.90
4435;DHT22;46552;52.150;8.428;2023-05-10T16:37:35;17.60;99.90
4435;DHT22;46552;52.150;8.428;2023-05-10T16:40:05;17.40;99.90
4435;DHT22;46552;52.150;8.428;2023-05-10T16:45:00;17.70;99.90
4435;DHT22;46552;52.150;8.428;2023-05-10T16:50:05;17.50;99.90
4435;DHT22;46552;52.150;8.428;2023-05-10T16:52:33;17.70;99.90
4435;DHT22;46552;52.150;8.428;2023-05-10T16:59:57;17.80;99.90
4435;DHT22;46552;52.150;8.428;2023-05-10T17:02:24;17.70;99.90
4435;DHT22;46552;52.150;8.428;2023-05-10T17:04:51;17.40;99.90
4435;DHT22;46552;52.150;8.428;2023-05-10T17:07:22;17.40;99.90
4435;DHT22;46552;52.150;8.428;2023-05-10T17:09:49;17.30;99.90
4435;DHT22;46552;52.150;8.428;2023-05-10T17:12:16;17.50;99.90
4435;DHT22;46552;52.150;8.428;2023-05-10T17:14:43;17.00;99.90
4435;DHT22;46552;52.150;8.428;2023-05-10T17:17:10;16.40;99.90
4435;DHT22;46552;52.150;8.428;2023-05-10T17:22:05;17.20;99.90
4435;DHT22;46552;52.150;8.428;2023-05-10T17:24:33;17.10;99.90
4435;DHT22;46552;52.150;8.428;2023-05-10T17:27:00;16.80;99.90
4435;DHT22;46552;52.150;8.428;2023-05-10T17:31:56;16.90;99.90
4435;DHT22;46552;52.150;8.428;2023-05-10T17:34:23;17.00;99.90
4435;DHT22;46552;52.150;8.428;2023-05-10T17:36:50;17.00;99.90
4435;DHT22;46552;52.150;8.428;2023-05-10T17:39:18;17.20;99.90
4435;DHT22;46552;52.150;8.428;2023-05-10T17:41:47;16.90;99.90
4435;DHT22;46552;52.150;8.428;2023-05-10T17:44:14;16.60;99.90
4435;DHT22;46552;52.150;8.428;2023-05-10T17:46:41;16.90;99.90
4435;DHT22;46552;52.150;8.428;2023-05-10T17:49:08;16.90;99.90
4435;DHT22;46552;52.150;8.428;2023-05-10T17:51:35;16.60;99.90